createdAt,value
2024-05-09T00:00:10.428Z,90.78
2024-05-09T00:01:08.634Z,90.99
2024-05-09T00:02:07.542Z,91.25
2024-05-09T00:03:08.252Z,92.25
2024-05-09T00:04:07.639Z,93.10
2024-05-09T00:05:07.623Z,93.65
2024-05-09T00:06:07.766Z,92.35
2024-05-09T00:07:07.549Z,94.48
2024-05-09T00:08:07.615Z,93.91
2024-05-09T00:09:07.546Z,93.69
2024-05-09T00:10:11.776Z,91.67
2024-05-09T00:11:08.658Z,91.83
2024-05-09T00:12:07.828Z,91.89
2024-05-09T00:13:07.968Z,90.99
2024-05-09T00:14:07.573Z,91.88
2024-05-09T00:15:07.579Z,94.00
2024-05-09T00:16:07.567Z,92.26
2024-05-09T00:17:07.674Z,90.75
2024-05-09T00:18:08.258Z,93.17
2024-05-09T00:19:07.686Z,92.35
2024-05-09T00:20:14.331Z,91.20
2024-05-09T00:21:08.692Z,91.43
2024-05-09T00:22:07.587Z,91.73
2024-05-09T00:23:08.118Z,93.06
2024-05-09T00:24:07.578Z,93.72
2024-05-09T00:25:07.649Z,95.70
2024-05-09T00:26:07.723Z,93.88
2024-05-09T00:27:08.964Z,95.76
2024-05-09T00:28:07.630Z,96.15
2024-05-09T00:29:07.728Z,95.03
2024-05-09T00:30:11.529Z,97.07
2024-05-09T00:31:08.626Z,97.11
2024-05-09T00:32:07.761Z,95.62
2024-05-09T00:33:09.211Z,94.23
2024-05-09T00:34:07.695Z,96.75
2024-05-09T00:35:09.452Z,97.44
2024-05-09T00:36:07.667Z,97.09
2024-05-09T00:37:07.659Z,97.02
2024-05-09T00:38:07.765Z,94.98
2024-05-09T00:39:07.649Z,96.08
2024-05-09T00:40:15.023Z,95.26
2024-05-09T00:41:08.719Z,97.15
2024-05-09T00:42:07.664Z,97.14
2024-05-09T00:43:07.678Z,92.69
2024-05-09T00:44:07.708Z,94.52
2024-05-09T00:45:07.647Z,93.54
2024-05-09T00:46:07.644Z,93.93
2024-05-09T00:47:07.949Z,93.59
2024-05-09T00:48:09.092Z,91.06
2024-05-09T00:49:07.715Z,91.35
2024-05-09T00:50:12.714Z,92.38
2024-05-09T00:51:08.764Z,92.56
2024-05-09T00:52:07.685Z,91.44
2024-05-09T00:53:07.755Z,92.17
2024-05-09T00:54:07.692Z,91.17
2024-05-09T00:55:07.687Z,91.14
2024-05-09T00:56:07.735Z,91.83
2024-05-09T00:57:07.703Z,89.44
2024-05-09T00:58:07.772Z,89.29
2024-05-09T00:59:07.787Z,90.14
2024-05-09T01:00:15.040Z,90.97
2024-05-09T01:01:08.708Z,91.09
2024-05-09T01:02:07.833Z,91.46
2024-05-09T01:03:08.435Z,91.47
2024-05-09T01:04:07.819Z,93.28
2024-05-09T01:05:07.831Z,93.01
2024-05-09T01:06:07.787Z,91.15
2024-05-09T01:07:07.765Z,91.93
2024-05-09T01:08:37.537Z,50.00
2024-05-09T01:09:37.472Z,50.00
2024-05-09T01:10:37.507Z,50.00
2024-05-09T01:11:37.621Z,50.00
2024-05-09T01:12:37.637Z,50.00
2024-05-09T01:13:37.658Z,51.56
2024-05-09T01:14:37.774Z,53.43
2024-05-09T01:15:37.846Z,50.71
2024-05-09T01:16:37.907Z,52.52
2024-05-09T01:17:38.173Z,51.08
2024-05-09T01:18:38.213Z,51.53
2024-05-09T01:19:38.170Z,52.88
2024-05-09T01:20:42.317Z,53.21
2024-05-09T01:21:39.313Z,53.29
2024-05-09T01:22:38.344Z,53.39
2024-05-09T01:23:38.386Z,52.80
2024-05-09T01:24:38.332Z,53.61
2024-05-09T01:25:38.354Z,53.26
2024-05-09T01:26:38.327Z,52.33
2024-05-09T01:27:38.326Z,55.13
2024-05-09T01:28:38.338Z,51.63
2024-05-09T01:29:38.378Z,55.05
2024-05-09T01:30:38.749Z,52.77
2024-05-09T01:31:38.386Z,52.01
2024-05-09T01:32:38.512Z,51.09
2024-05-09T01:33:38.769Z,54.77
2024-05-09T01:34:38.477Z,54.25
2024-05-09T01:35:38.910Z,52.03
2024-05-09T01:36:38.552Z,53.15
2024-05-09T01:37:38.610Z,51.65
2024-05-09T01:38:38.714Z,52.53
2024-05-09T01:39:38.676Z,50.31
2024-05-09T01:40:40.235Z,52.05
2024-05-09T01:41:38.798Z,51.07
2024-05-09T01:42:38.782Z,53.41
2024-05-09T01:43:38.838Z,51.69
2024-05-09T01:44:38.881Z,50.46
2024-05-09T01:45:38.932Z,52.69
2024-05-09T01:46:38.934Z,50.69
2024-05-09T01:47:39.145Z,51.68
2024-05-09T01:48:39.325Z,50.42
2024-05-09T01:49:39.273Z,52.35
2024-05-09T01:50:42.091Z,51.00
2024-05-09T01:51:39.272Z,51.36
2024-05-09T01:52:39.312Z,50.70
2024-05-09T01:53:39.334Z,50.33
2024-05-09T01:54:39.289Z,52.15
2024-05-09T01:55:39.301Z,51.36
2024-05-09T01:56:39.346Z,51.08
2024-05-09T01:57:39.316Z,51.83
2024-05-09T01:58:39.271Z,55.58
2024-05-09T01:59:39.396Z,53.35
2024-05-09T02:00:41.948Z,54.89
2024-05-09T02:01:55.850Z,54.94
2024-05-09T02:02:40.427Z,55.10
2024-05-09T02:03:39.512Z,55.53
2024-05-09T02:04:39.346Z,56.40
2024-05-09T02:05:39.467Z,57.31
2024-05-09T02:06:39.302Z,57.07
2024-05-09T02:07:39.375Z,57.40
2024-05-09T02:08:39.474Z,56.40
2024-05-09T02:09:39.358Z,56.56
2024-05-09T02:10:39.334Z,55.65
2024-05-09T02:11:39.436Z,57.62
2024-05-09T02:12:39.416Z,59.69
2024-05-09T02:13:39.362Z,59.93
2024-05-09T02:14:39.395Z,62.78
2024-05-09T02:15:39.386Z,62.77
2024-05-09T02:16:39.387Z,64.78
2024-05-09T02:17:39.546Z,63.22
2024-05-09T02:18:39.528Z,62.48
2024-05-09T02:19:39.486Z,63.64
2024-05-09T02:20:39.781Z,65.63
2024-05-09T02:21:39.536Z,67.67
2024-05-09T02:22:39.583Z,65.35
2024-05-09T02:23:39.583Z,65.67
2024-05-09T02:24:39.580Z,64.27
2024-05-09T02:25:39.649Z,65.12
2024-05-09T02:26:39.803Z,65.42
2024-05-09T02:27:39.853Z,64.48
2024-05-09T02:28:39.881Z,62.34
2024-05-09T02:29:40.019Z,63.44
2024-05-09T02:30:41.933Z,62.58
2024-05-09T02:31:40.160Z,62.12
2024-05-09T02:32:40.444Z,61.68
2024-05-09T02:33:40.385Z,61.26
2024-05-09T02:34:40.238Z,61.90
2024-05-09T02:35:40.369Z,59.70
2024-05-09T02:36:40.328Z,57.93
2024-05-09T02:37:40.342Z,55.11
2024-05-09T02:38:40.437Z,56.19
2024-05-09T02:39:40.415Z,52.92
2024-05-09T02:40:40.865Z,51.99
2024-05-09T02:41:40.470Z,52.79
2024-05-09T02:42:40.517Z,51.10
2024-05-09T02:43:40.541Z,53.20
2024-05-09T02:44:40.593Z,51.09
2024-05-09T02:45:40.799Z,53.55
2024-05-09T02:46:40.646Z,53.12
2024-05-09T02:47:40.838Z,54.15
2024-05-09T02:48:40.909Z,52.18
2024-05-09T02:49:41.058Z,51.38
2024-05-09T02:50:41.233Z,52.02
2024-05-09T02:51:41.101Z,50.44
2024-05-09T02:52:41.094Z,51.68
2024-05-09T02:53:41.221Z,50.00
2024-05-09T02:54:41.273Z,52.34
2024-05-09T02:55:41.550Z,51.54
2024-05-09T02:56:41.509Z,52.01
2024-05-09T02:57:41.589Z,50.54
2024-05-09T02:58:41.682Z,52.32
2024-05-09T02:59:41.758Z,51.02
2024-05-09T03:00:43.002Z,52.87
2024-05-09T03:01:42.026Z,51.59
2024-05-09T03:02:42.104Z,51.40
2024-05-09T03:03:42.228Z,50.60
2024-05-09T03:04:42.255Z,52.16
2024-05-09T03:05:42.766Z,52.96
2024-05-09T03:06:42.321Z,53.70
2024-05-09T03:07:42.398Z,51.98
2024-05-09T03:08:42.507Z,51.52
2024-05-09T03:09:42.547Z,52.14
2024-05-09T03:10:42.821Z,54.27
2024-05-09T03:11:42.790Z,52.23
2024-05-09T03:12:42.929Z,53.84
2024-05-09T03:13:43.036Z,52.76
2024-05-09T03:14:43.103Z,51.73
2024-05-09T03:15:43.267Z,51.78
2024-05-09T03:16:43.387Z,51.18
2024-05-09T03:17:43.622Z,51.56
2024-05-09T03:18:43.508Z,51.30
2024-05-09T03:19:43.551Z,51.78
2024-05-09T03:20:43.708Z,50.10
2024-05-09T03:21:43.628Z,51.79
2024-05-09T03:22:43.763Z,52.62
2024-05-09T03:23:43.833Z,53.34
2024-05-09T03:24:43.856Z,50.54
2024-05-09T03:25:44.034Z,53.84
2024-05-09T03:26:44.129Z,54.51
2024-05-09T03:27:44.255Z,55.33
2024-05-09T03:28:44.342Z,57.98
2024-05-09T03:29:44.386Z,59.20
2024-05-09T03:30:44.521Z,58.10
2024-05-09T03:31:44.653Z,58.26
2024-05-09T03:32:44.787Z,58.31
2024-05-09T03:33:44.844Z,61.23
2024-05-09T03:34:44.807Z,61.67
2024-05-09T03:35:44.858Z,60.01
2024-05-09T03:36:44.929Z,63.87
2024-05-09T03:37:45.048Z,65.38
2024-05-09T03:38:45.240Z,64.11
2024-05-09T03:39:45.282Z,66.44
2024-05-09T03:40:45.470Z,67.56
2024-05-09T03:41:45.520Z,67.45
2024-05-09T03:42:45.536Z,69.13
2024-05-09T03:43:45.679Z,70.75
2024-05-09T03:44:45.661Z,71.66
2024-05-09T03:45:45.814Z,72.61
2024-05-09T03:46:45.871Z,75.68
2024-05-09T03:47:46.189Z,73.32
2024-05-09T03:48:46.081Z,77.34
2024-05-09T03:49:46.113Z,77.91
2024-05-09T03:50:46.194Z,78.01
2024-05-09T03:51:46.219Z,78.04
2024-05-09T03:52:46.374Z,78.82
2024-05-09T03:53:46.420Z,79.18
2024-05-09T03:54:46.464Z,80.79
2024-05-09T03:55:46.575Z,80.73
2024-05-09T03:56:46.675Z,79.88
2024-05-09T03:57:46.672Z,81.62
2024-05-09T03:58:46.865Z,83.31
2024-05-09T03:59:46.871Z,82.50
2024-05-09T04:00:47.003Z,85.34
2024-05-09T04:01:47.126Z,86.03
2024-05-09T04:02:47.274Z,86.62
2024-05-09T04:03:47.409Z,88.85
2024-05-09T04:04:47.334Z,88.29
2024-05-09T04:05:47.346Z,89.38
2024-05-09T04:06:47.404Z,90.51
2024-05-09T04:07:47.518Z,90.34
2024-05-09T04:08:47.705Z,92.25
2024-05-09T04:09:47.681Z,91.12
2024-05-09T04:10:47.869Z,92.66
2024-05-09T04:11:47.992Z,91.90
2024-05-09T04:12:47.940Z,93.13
2024-05-09T04:13:48.044Z,92.65
2024-05-09T04:14:48.109Z,93.63
2024-05-09T04:15:48.196Z,92.05
2024-05-09T04:16:48.265Z,95.48
2024-05-09T04:17:48.449Z,93.15
2024-05-09T04:18:49.508Z,93.63
2024-05-09T04:19:48.501Z,96.97
2024-05-09T04:20:48.613Z,96.49
2024-05-09T04:21:48.702Z,99.62
2024-05-09T04:22:48.838Z,97.42
2024-05-09T04:23:48.958Z,98.00
2024-05-09T04:24:48.935Z,97.52
2024-05-09T04:25:49.097Z,96.97
2024-05-09T04:26:49.108Z,95.67
2024-05-09T04:27:49.174Z,92.06
2024-05-09T04:28:49.256Z,94.27
2024-05-09T04:29:49.339Z,93.61
2024-05-09T04:30:49.381Z,91.92
2024-05-09T04:31:49.504Z,91.03
2024-05-09T04:32:49.768Z,90.39
2024-05-09T04:33:49.837Z,87.25
2024-05-09T04:34:57.420Z,50.00
2024-05-09T04:35:57.540Z,50.00
2024-05-09T04:36:57.461Z,50.00
2024-05-09T04:37:57.559Z,50.00
2024-05-09T04:38:57.560Z,50.00
2024-05-09T04:39:57.605Z,51.08
2024-05-09T04:40:57.627Z,53.12
2024-05-09T04:41:57.646Z,54.28
2024-05-09T04:42:57.712Z,51.89
2024-05-09T04:43:57.767Z,51.45
2024-05-09T04:44:58.804Z,51.17
2024-05-09T04:45:57.865Z,52.14
2024-05-09T04:46:57.989Z,54.01
2024-05-09T04:47:58.331Z,57.20
2024-05-09T04:48:58.050Z,57.92
2024-05-09T04:49:58.019Z,58.97
2024-05-09T04:50:58.020Z,57.26
2024-05-09T04:51:58.043Z,57.02
2024-05-09T04:52:58.156Z,60.28
2024-05-09T04:53:58.143Z,61.26
2024-05-09T04:54:59.032Z,61.41
2024-05-09T04:55:58.415Z,67.47
2024-05-09T04:56:58.370Z,69.76
2024-05-09T04:57:58.501Z,74.19
2024-05-09T04:58:58.665Z,73.86
2024-05-09T04:59:58.744Z,73.90
2024-05-09T05:00:58.907Z,73.52
2024-05-09T05:01:59.006Z,72.76
2024-05-09T05:02:59.250Z,72.63
2024-05-09T05:03:59.319Z,69.62
2024-05-09T05:04:59.190Z,71.91
2024-05-09T05:05:59.461Z,71.86
2024-05-09T05:07:02.104Z,74.20
2024-05-09T05:07:59.372Z,78.57
2024-05-09T05:08:59.365Z,78.15
2024-05-09T05:09:59.364Z,75.44
2024-05-09T05:10:59.422Z,75.16
2024-05-09T05:11:59.528Z,76.69
2024-05-09T05:12:59.370Z,77.29
2024-05-09T05:13:59.432Z,81.60
2024-05-09T05:14:59.381Z,86.42
2024-05-09T05:15:59.355Z,92.00
2024-05-09T05:16:59.416Z,91.25
2024-05-09T05:17:59.557Z,88.00
2024-05-09T05:18:59.489Z,79.93
2024-05-09T05:19:59.461Z,79.77
2024-05-09T05:20:59.498Z,80.96
2024-05-09T05:21:59.369Z,76.54
2024-05-09T05:22:59.399Z,79.63
2024-05-09T05:23:59.376Z,77.96
2024-05-09T05:24:59.390Z,81.48
2024-05-09T05:25:59.422Z,85.61
2024-05-09T05:26:59.367Z,94.88
2024-05-09T05:27:59.409Z,101.61
2024-05-09T05:28:59.426Z,101.78
2024-05-09T05:29:59.378Z,104.99
2024-05-09T05:30:59.392Z,103.54
2024-05-09T05:31:59.592Z,107.66
2024-05-09T05:32:59.514Z,107.64
2024-05-09T05:33:59.490Z,110.69
2024-05-09T05:34:59.455Z,112.02
2024-05-09T05:35:59.414Z,114.83
2024-05-09T05:36:59.405Z,115.42
2024-05-09T05:37:59.456Z,116.09
2024-05-09T05:38:59.456Z,118.32
2024-05-09T05:39:59.618Z,117.99
2024-05-09T05:40:59.443Z,117.84
2024-05-09T05:42:43.993Z,50.00
2024-05-09T05:43:44.160Z,50.00
2024-05-09T05:44:44.044Z,50.00
2024-05-09T05:45:44.156Z,50.00
2024-05-09T05:46:44.243Z,50.00
2024-05-09T05:47:44.334Z,50.69
2024-05-09T05:48:44.303Z,50.29
2024-05-09T05:49:44.370Z,52.87
2024-05-09T05:50:44.443Z,54.65
2024-05-09T05:51:44.476Z,52.77
2024-05-09T05:52:44.626Z,50.09
2024-05-09T05:53:44.697Z,50.19
2024-05-09T05:54:44.705Z,50.10
2024-05-09T05:55:44.819Z,50.00
2024-05-09T05:56:44.888Z,52.30
2024-05-09T05:57:44.943Z,50.50
2024-05-09T05:58:45.007Z,50.00
2024-05-09T05:59:45.117Z,53.44
2024-05-09T06:00:45.371Z,51.37
2024-05-09T06:01:45.437Z,52.76
2024-05-09T06:02:45.621Z,52.62
2024-05-09T06:03:45.524Z,52.31
2024-05-09T06:04:45.759Z,52.78
2024-05-09T06:05:45.771Z,50.82
2024-05-09T06:06:45.745Z,50.16
2024-05-09T06:07:45.938Z,51.52
2024-05-09T06:08:45.992Z,50.44
2024-05-09T06:09:48.216Z,50.00
2024-05-09T06:10:46.308Z,50.00
2024-05-09T06:11:46.158Z,52.51
2024-05-09T06:12:46.089Z,53.09
2024-05-09T06:13:46.108Z,56.01
2024-05-09T06:14:46.061Z,60.50
2024-05-09T06:15:46.065Z,62.35
2024-05-09T06:16:46.067Z,56.75
2024-05-09T06:17:46.325Z,57.44
2024-05-09T06:18:47.088Z,58.56
2024-05-09T06:19:46.258Z,55.63
2024-05-09T06:20:46.126Z,53.87
2024-05-09T06:21:46.050Z,52.47
2024-05-09T06:22:46.115Z,49.99
2024-05-09T06:23:46.151Z,50.00
2024-05-09T06:24:46.076Z,51.16
2024-05-09T06:25:46.142Z,50.53
2024-05-09T06:26:46.073Z,50.88
2024-05-09T06:27:46.079Z,51.14
2024-05-09T06:28:46.114Z,54.08
2024-05-09T06:29:46.159Z,57.93
2024-05-09T06:30:46.125Z,61.60
2024-05-09T06:31:46.148Z,58.35
2024-05-09T06:32:46.274Z,61.25
2024-05-09T06:33:46.204Z,57.75
2024-05-09T06:34:46.191Z,56.83
2024-05-09T06:35:46.247Z,56.44
2024-05-09T06:36:46.160Z,55.00
2024-05-09T06:37:46.263Z,52.91
2024-05-09T06:38:46.371Z,50.72
2024-05-09T06:39:46.398Z,53.99
2024-05-09T06:40:46.503Z,50.00
2024-05-09T06:41:46.555Z,50.43
2024-05-09T06:42:46.614Z,50.00
2024-05-09T06:43:46.772Z,50.00
2024-05-09T06:44:46.823Z,50.28
2024-05-09T06:45:47.014Z,50.23
2024-05-09T06:46:47.119Z,52.88
2024-05-09T06:47:47.268Z,49.24
2024-05-09T06:48:47.332Z,52.82
2024-05-09T06:49:47.428Z,50.00
2024-05-09T06:50:47.477Z,51.49
2024-05-09T06:51:47.489Z,51.84
2024-05-09T06:52:47.636Z,52.54
2024-05-09T06:53:47.751Z,54.89
2024-05-09T06:54:47.800Z,55.03
2024-05-09T06:55:47.963Z,53.70
2024-05-09T06:56:48.010Z,52.10
2024-05-09T06:57:48.174Z,50.00
2024-05-09T06:58:48.272Z,50.00
2024-05-09T06:59:48.308Z,52.74
2024-05-09T07:00:48.502Z,56.18
2024-05-09T07:01:48.554Z,58.60
2024-05-09T07:02:48.813Z,58.63
2024-05-09T07:03:48.789Z,57.56
2024-05-09T07:04:48.906Z,54.54
2024-05-09T07:05:49.746Z,53.11
2024-05-09T07:06:48.926Z,51.53
2024-05-09T07:07:49.098Z,50.00
2024-05-09T07:08:51.863Z,52.69
2024-05-09T07:09:49.161Z,51.96
2024-05-09T07:10:49.316Z,50.96
2024-05-09T07:11:49.203Z,50.72
2024-05-09T07:12:49.128Z,50.00
2024-05-09T07:13:49.155Z,50.00
2024-05-09T07:14:49.210Z,50.61
2024-05-09T07:15:49.138Z,50.00
2024-05-09T07:16:49.224Z,50.60
2024-05-09T07:17:49.286Z,51.12
2024-05-09T07:18:49.248Z,56.55
2024-05-09T07:19:49.210Z,62.32
2024-05-09T07:20:50.215Z,68.54
2024-05-09T07:21:49.132Z,75.15
2024-05-09T07:22:49.161Z,73.74
2024-05-09T07:23:49.312Z,74.34
2024-05-09T07:24:49.166Z,76.96
2024-05-09T07:25:49.234Z,78.75
2024-05-09T07:26:49.176Z,78.20
2024-05-09T07:27:49.152Z,76.90
2024-05-09T07:28:49.210Z,77.18
2024-05-09T07:29:49.251Z,80.29
2024-05-09T07:30:49.153Z,81.35
2024-05-09T07:31:49.209Z,83.85
2024-05-09T07:32:49.438Z,76.07
2024-05-09T07:33:49.242Z,73.77
2024-05-09T07:34:49.205Z,71.13
2024-05-09T07:35:49.267Z,72.14
2024-05-09T07:36:49.188Z,73.93
2024-05-09T07:37:49.220Z,73.14
2024-05-09T07:38:49.271Z,72.88
2024-05-09T07:39:49.311Z,71.22
2024-05-09T07:40:49.537Z,72.12
2024-05-09T07:41:49.459Z,71.24
2024-05-09T07:42:49.551Z,70.11
2024-05-09T07:43:49.648Z,60.77
2024-05-09T07:44:49.699Z,56.42
2024-05-09T07:45:53.900Z,57.87
2024-05-09T07:47:52.309Z,58.05
2024-05-09T07:49:13.690Z,58.20
2024-05-09T07:52:24.310Z,58.47
2024-05-09T07:53:17.561Z,58.40
2024-05-09T07:53:35.347Z,58.47
2024-05-09T07:53:53.507Z,58.46
2024-05-09T07:54:50.914Z,58.57
2024-05-09T07:55:49.935Z,60.74
2024-05-09T07:56:50.042Z,62.82
2024-05-09T07:57:49.928Z,64.57
2024-05-09T07:58:49.886Z,62.28
2024-05-09T07:59:49.881Z,53.05
2024-05-09T08:00:49.960Z,52.86
2024-05-09T08:01:50.048Z,51.88
2024-05-09T08:02:49.884Z,52.64
2024-05-09T08:03:50.274Z,51.25
2024-05-09T08:04:49.969Z,53.47
2024-05-09T08:05:50.004Z,55.13
2024-05-09T08:06:49.951Z,50.49
2024-05-09T08:07:49.910Z,50.00
2024-05-09T08:08:49.878Z,53.82
2024-05-09T08:09:49.904Z,50.72
2024-05-09T08:10:49.987Z,50.63
2024-05-09T08:11:49.937Z,51.93
2024-05-09T08:12:49.966Z,53.89
2024-05-09T08:13:49.883Z,51.75
2024-05-09T08:14:49.923Z,56.05
2024-05-09T08:15:49.912Z,61.72
2024-05-09T08:16:49.903Z,64.30
2024-05-09T08:17:50.067Z,56.49
2024-05-09T08:18:50.052Z,52.29
2024-05-09T08:19:49.966Z,50.00
2024-05-09T08:20:49.901Z,60.52
2024-05-09T08:21:49.959Z,63.17
2024-05-09T08:22:49.893Z,62.72
2024-05-09T08:23:49.907Z,59.18
2024-05-09T08:24:49.960Z,50.97
2024-05-09T08:25:49.954Z,50.25
2024-05-09T08:26:50.043Z,50.00
2024-05-09T08:27:50.198Z,57.19
2024-05-09T08:28:50.289Z,70.43
2024-05-09T08:29:50.419Z,76.68
2024-05-09T08:30:50.594Z,82.85
2024-05-09T08:31:50.666Z,86.71
2024-05-09T08:32:50.813Z,88.62
2024-05-09T08:33:50.961Z,93.05
2024-05-09T08:34:50.919Z,92.27
2024-05-09T08:35:50.983Z,93.91
2024-05-09T08:36:51.124Z,82.80
2024-05-09T08:37:51.243Z,78.45
2024-05-09T08:38:51.272Z,67.34
2024-05-09T08:39:51.479Z,64.10
2024-05-09T08:40:51.526Z,65.32
2024-05-09T08:41:51.600Z,66.52
2024-05-09T08:42:51.875Z,65.55
2024-05-09T08:43:51.798Z,66.93
2024-05-09T08:44:51.902Z,72.19
2024-05-09T08:45:52.131Z,74.19
2024-05-09T08:46:52.151Z,71.75
2024-05-09T08:47:52.463Z,70.36
2024-05-09T08:48:52.680Z,64.45
2024-05-09T08:49:52.549Z,59.92
2024-05-09T08:50:52.796Z,54.63
2024-05-09T08:51:52.706Z,55.31
2024-05-09T08:52:52.751Z,50.65
2024-05-09T08:53:52.855Z,52.00
2024-05-09T08:54:53.016Z,51.87
2024-05-09T08:55:53.076Z,60.09
2024-05-09T08:56:53.190Z,53.12
2024-05-09T08:57:53.288Z,53.55
2024-05-09T08:58:53.372Z,50.00
2024-05-09T08:59:53.492Z,49.85
2024-05-09T09:00:53.781Z,49.56
2024-05-09T09:01:53.802Z,54.08
2024-05-09T09:02:53.868Z,51.81
2024-05-09T09:03:54.146Z,50.37
2024-05-09T09:04:54.055Z,57.22
2024-05-09T09:05:54.143Z,60.90
2024-05-09T09:06:57.236Z,63.47
2024-05-09T09:07:54.213Z,71.92
2024-05-09T09:08:54.226Z,65.50
2024-05-09T09:09:54.240Z,64.22
2024-05-09T09:10:54.230Z,63.86
2024-05-09T09:11:54.256Z,64.62
2024-05-09T09:12:54.248Z,54.61
2024-05-09T09:13:54.204Z,50.00
2024-05-09T09:14:54.209Z,53.80
2024-05-09T09:15:54.216Z,52.51
2024-05-09T09:16:54.223Z,55.22
2024-05-09T09:17:54.417Z,57.21
2024-05-09T09:18:54.361Z,53.29
2024-05-09T09:19:54.254Z,57.19
2024-05-09T09:20:54.266Z,63.66
2024-05-09T09:21:54.258Z,65.62
2024-05-09T09:22:54.218Z,65.66
2024-05-09T09:23:54.232Z,74.23
2024-05-09T09:24:54.253Z,78.51
2024-05-09T09:25:54.225Z,81.17
2024-05-09T09:26:54.222Z,84.35
2024-05-09T09:27:54.255Z,86.35
2024-05-09T09:28:54.231Z,83.03
2024-05-09T09:29:54.243Z,77.92
2024-05-09T09:30:54.278Z,81.97
2024-05-09T09:31:54.226Z,83.12
2024-05-09T09:32:54.291Z,84.19
2024-05-09T09:33:54.484Z,80.97
2024-05-09T09:34:54.288Z,73.13
2024-05-09T09:35:54.218Z,77.15
2024-05-09T09:36:54.348Z,72.79
2024-05-09T09:37:54.291Z,79.13
2024-05-09T09:38:54.239Z,74.98
2024-05-09T09:39:54.279Z,69.40
2024-05-09T09:40:54.460Z,66.14
2024-05-09T09:41:54.426Z,63.44
2024-05-09T09:42:54.587Z,59.82
2024-05-09T09:43:54.675Z,49.23
2024-05-09T09:45:03.752Z,59.08
2024-05-09T09:45:55.851Z,59.31
2024-05-09T09:46:54.794Z,60.70
2024-05-09T09:47:54.898Z,63.69
2024-05-09T09:48:54.891Z,68.33
2024-05-09T09:49:54.852Z,78.25
2024-05-09T09:50:54.817Z,80.50
2024-05-09T09:51:54.893Z,72.74
2024-05-09T09:52:54.805Z,76.83
2024-05-09T09:53:54.781Z,78.02
2024-05-09T09:54:55.025Z,77.79
2024-05-09T09:55:54.833Z,75.19
2024-05-09T09:56:54.908Z,69.25
2024-05-09T09:57:55.119Z,56.52
2024-05-09T09:58:55.085Z,62.71
2024-05-09T09:59:55.207Z,69.07
2024-05-09T10:00:55.414Z,64.10
2024-05-09T10:01:55.477Z,62.61
2024-05-09T10:02:55.503Z,57.36
2024-05-09T10:03:55.648Z,50.56
2024-05-09T10:04:55.701Z,58.43
2024-05-09T10:05:55.856Z,64.28
2024-05-09T10:06:55.917Z,70.48
2024-05-09T10:07:55.860Z,74.93
2024-05-09T10:08:55.954Z,76.88
2024-05-09T10:09:56.101Z,78.72
2024-05-09T10:10:56.263Z,80.44
2024-05-09T10:12:56.311Z,78.26
2024-05-09T10:13:56.287Z,79.83
2024-05-09T10:14:56.331Z,79.11
2024-05-09T10:15:56.405Z,81.55
2024-05-09T10:16:56.393Z,82.56
2024-05-09T10:17:56.485Z,81.29
2024-05-09T10:18:56.566Z,77.75
2024-05-09T10:19:56.670Z,77.97
2024-05-09T10:20:56.588Z,76.99
2024-05-09T10:21:56.666Z,77.35
2024-05-09T10:22:56.771Z,77.44
2024-05-09T10:23:56.792Z,70.90
2024-05-09T10:24:56.897Z,69.81
2024-05-09T10:25:56.982Z,68.40
2024-05-09T10:26:57.041Z,53.50
2024-05-09T10:27:57.198Z,54.59
2024-05-09T10:28:57.205Z,56.42
2024-05-09T10:29:57.306Z,56.04
2024-05-09T10:30:57.443Z,57.43
2024-05-09T10:31:57.468Z,59.93
2024-05-09T10:32:57.725Z,57.50
2024-05-09T10:33:57.842Z,56.72
2024-05-09T10:34:57.856Z,50.85
2024-05-09T10:35:57.817Z,50.66
2024-05-09T10:36:57.901Z,50.05
2024-05-09T10:37:58.017Z,50.00
2024-05-09T10:38:58.076Z,53.83
2024-05-09T10:39:58.193Z,54.52
2024-05-09T10:40:58.233Z,56.88
2024-05-09T10:41:58.327Z,53.01
2024-05-09T10:42:58.857Z,49.79
2024-05-09T10:43:58.450Z,50.00
2024-05-09T10:44:58.474Z,53.39
2024-05-09T10:45:58.538Z,51.30
2024-05-09T10:46:58.594Z,52.30
2024-05-09T10:47:58.815Z,52.11
2024-05-09T10:48:59.658Z,56.00
2024-05-09T10:49:58.697Z,57.93
2024-05-09T10:50:58.755Z,59.44
2024-05-09T10:51:58.843Z,64.34
2024-05-09T10:52:58.885Z,54.28
2024-05-09T10:53:58.965Z,59.44
2024-05-09T10:55:00.406Z,59.29
2024-05-09T10:55:59.079Z,61.32
2024-05-09T10:56:59.112Z,54.67
2024-05-09T10:57:59.178Z,53.50
2024-05-09T10:58:59.190Z,57.67
2024-05-09T10:59:59.258Z,56.27
2024-05-09T11:01:00.700Z,58.01
2024-05-09T11:01:59.439Z,59.56
2024-05-09T11:02:59.331Z,57.50
2024-05-09T11:03:59.400Z,59.65
2024-05-09T11:04:59.439Z,64.62
2024-05-09T11:05:59.323Z,53.15
2024-05-09T11:07:00.982Z,58.86
2024-05-09T11:07:59.313Z,59.00
2024-05-09T11:08:59.276Z,59.48
2024-05-09T11:09:59.330Z,59.81
2024-05-09T11:10:59.290Z,62.20
2024-05-09T11:11:59.348Z,62.58
2024-05-09T11:12:59.426Z,65.50
2024-05-09T11:13:59.697Z,65.27
2024-05-09T11:14:59.996Z,65.69
2024-05-09T11:15:59.446Z,64.72
2024-05-09T11:16:59.308Z,54.85
2024-05-09T11:17:59.345Z,52.40
2024-05-09T11:18:59.677Z,50.40
2024-05-09T11:19:59.330Z,51.58
2024-05-09T11:20:59.318Z,50.32
2024-05-09T11:21:59.309Z,51.29
2024-05-09T11:22:59.320Z,52.27
2024-05-09T11:23:59.324Z,56.25
2024-05-09T11:24:59.382Z,54.50
2024-05-09T11:25:59.472Z,56.40
2024-05-09T11:26:59.357Z,59.72
2024-05-09T11:27:59.413Z,65.30
2024-05-09T11:28:59.364Z,66.36
2024-05-09T11:29:59.314Z,60.00
2024-05-09T11:30:59.375Z,59.73
2024-05-09T11:31:59.345Z,60.70
2024-05-09T11:32:59.492Z,65.85
2024-05-09T11:33:59.405Z,61.35
2024-05-09T11:34:59.351Z,61.06
2024-05-09T11:35:59.348Z,64.05
2024-05-09T11:36:59.380Z,66.04
2024-05-09T11:37:59.334Z,62.33
2024-05-09T11:38:59.355Z,65.38
2024-05-09T11:39:59.396Z,69.27
2024-05-09T11:40:59.352Z,72.05
2024-05-09T11:41:59.373Z,68.50
2024-05-09T11:42:59.444Z,61.31
2024-05-09T11:43:59.362Z,63.81
2024-05-09T11:44:59.352Z,60.30
2024-05-09T11:45:59.440Z,62.09
2024-05-09T11:46:59.353Z,64.53
2024-05-09T11:47:59.434Z,60.95
2024-05-09T11:48:59.596Z,60.84
2024-05-09T11:49:59.514Z,61.90
2024-05-09T11:50:59.369Z,56.13
2024-05-09T11:51:59.388Z,53.16
2024-05-09T11:52:59.372Z,55.08
2024-05-09T11:53:59.379Z,52.56
2024-05-09T11:54:59.400Z,50.00
2024-05-09T11:55:59.377Z,50.89
2024-05-09T11:56:59.389Z,50.00
2024-05-09T11:57:59.409Z,50.34
2024-05-09T11:58:59.452Z,55.55
2024-05-09T11:59:59.509Z,53.74
2024-05-09T12:00:59.749Z,55.12
2024-05-09T12:01:59.763Z,50.41
2024-05-09T12:02:59.807Z,52.72
2024-05-09T12:04:00.153Z,50.13
2024-05-09T12:05:00.014Z,50.00
2024-05-09T12:06:00.111Z,51.44
2024-05-09T12:07:00.158Z,53.85
2024-05-09T12:08:00.179Z,52.91
2024-05-09T12:09:00.267Z,53.88
2024-05-09T12:10:00.427Z,50.55
2024-05-09T12:11:00.716Z,52.60
2024-05-09T12:12:00.519Z,53.48
2024-05-09T12:13:00.619Z,58.62
2024-05-09T12:14:00.666Z,59.12
2024-05-09T12:15:00.733Z,60.88
2024-05-09T12:16:00.968Z,62.29
2024-05-09T12:17:00.933Z,63.51
2024-05-09T12:18:03.641Z,66.93
2024-05-09T12:19:01.159Z,69.63
2024-05-09T12:20:01.018Z,71.75
2024-05-09T12:21:01.039Z,70.22
2024-05-09T12:22:01.025Z,65.03
2024-05-09T12:23:01.016Z,67.28
2024-05-09T12:24:01.052Z,67.68
2024-05-09T12:25:01.037Z,71.01
2024-05-09T12:26:01.049Z,74.31
2024-05-09T12:27:00.999Z,74.54
2024-05-09T12:28:01.276Z,78.02
2024-05-09T12:29:01.028Z,76.62
2024-05-09T12:30:01.039Z,80.95
2024-05-09T12:31:01.148Z,82.82
2024-05-09T12:32:01.111Z,86.77
2024-05-09T12:33:01.176Z,85.75
2024-05-09T12:34:01.121Z,89.05
2024-05-09T12:35:01.022Z,91.65
2024-05-09T12:36:01.063Z,91.59
2024-05-09T12:37:01.139Z,94.60
2024-05-09T12:38:01.065Z,92.16
2024-05-09T12:39:01.040Z,91.85
2024-05-09T12:40:01.064Z,91.97
2024-05-09T12:41:01.156Z,87.52
2024-05-09T12:42:01.076Z,93.38
2024-05-09T12:43:01.195Z,92.54
2024-05-09T12:44:01.098Z,92.65
2024-05-09T12:45:01.045Z,89.07
2024-05-09T12:46:01.259Z,94.64
2024-05-09T12:47:01.054Z,94.18
2024-05-09T12:48:01.270Z,94.73
2024-05-09T12:49:01.469Z,100.36
2024-05-09T12:50:01.199Z,100.82
2024-05-09T12:51:01.072Z,102.91
2024-05-09T12:52:01.105Z,104.74
2024-05-09T12:53:01.464Z,105.09
2024-05-09T12:54:01.083Z,103.89
2024-05-09T12:55:01.134Z,98.50
2024-05-09T12:56:03.007Z,99.49
2024-05-09T12:57:01.070Z,99.32